Time,TemperatureF,DewpointF,PressureIn,WindDirection,WindDirectionDegrees,WindSpeedMPH,WindSpeedGustMPH,Humidity,HourlyPrecipIn,Conditions,Clouds,dailyrainin,SoftwareType,DateUTC
2013-03-01 00:00:00,39.3,31.0,29.62,NNW,343,1.0,5.0,72,0.00,,---,0.15,VWS V14.01,2013-03-01 05:00:00,
2013-03-01 00:01:00,39.3,30.7,29.62,NW,319,3.0,5.0,71,0.00,,---,0.15,VWS V14.01,2013-03-01 05:01:00,
2013-03-01 00:05:00,38.6,30.4,29.62,WNW,292,2.0,6.0,72,0.00,,---,0.00,VWS V14.01,2013-03-01 05:05:00,
2013-03-01 00:06:00,39.3,30.7,29.61,NW,308,2.0,5.0,71,0.00,,---,0.00,VWS V14.01,2013-03-01 05:06:00,
2013-03-01 00:10:00,38.6,30.7,29.62,WNW,289,2.0,5.0,73,0.00,,---,0.00,VWS V14.01,2013-03-01 05:10:00,
2013-03-01 00:11:00,39.3,30.7,29.61,NNW,329,3.0,6.0,71,0.00,,---,0.00,VWS V14.01,2013-03-01 05:11:00,
2013-03-01 00:15:00,38.5,30.6,29.63,WNW,294,2.0,7.0,73,0.00,,---,0.00,VWS V14.01,2013-03-01 05:15:00,
2013-03-01 00:16:00,39.3,30.7,29.61,WNW,302,3.0,6.0,71,0.00,,---,0.00,VWS V14.01,2013-03-01 05:16:00,
2013-03-01 00:20:00,38.5,30.3,29.63,West,274,2.0,8.0,72,0.00,,---,0.00,VWS V14.01,2013-03-01 05:20:00,
2013-03-01 00:21:00,39.2,30.6,29.62,NW,313,2.0,6.0,71,0.00,,---,0.00,VWS V14.01,2013-03-01 05:21:00,
2013-03-01 00:25:00,38.5,31.0,29.63,WSW,246,3.0,4.0,74,0.00,,---,0.00,VWS V14.01,2013-03-01 05:25:00,
2013-03-01 00:26:00,39.2,30.6,29.62,NNW,332,2.0,7.0,71,0.00,,---,0.00,VWS V14.01,2013-03-01 05:26:00,
2013-03-01 00:30:00,38.5,31.6,29.63,West,278,2.0,6.0,76,0.00,,---,0.00,VWS V14.01,2013-03-01 05:30:00,
2013-03-01 00:31:00,39.1,30.9,29.62,NW,320,3.0,7.0,72,0.00,,---,0.00,VWS V14.01,2013-03-01 05:31:00,
2013-03-01 00:35:00,38.5,31.0,29.63,West,267,2.0,4.0,74,0.00,,---,0.00,VWS V14.01,2013-03-01 05:35:00,
2013-03-01 00:36:00,38.9,30.3,29.62,NW,304,2.0,5.0,71,0.00,,---,0.00,VWS V14.01,2013-03-01 05:36:00,
2013-03-01 00:40:00,38.5,31.6,29.63,West,264,2.0,4.0,76,0.00,,---,0.00,VWS V14.01,2013-03-01 05:40:00,
2013-03-01 00:41:00,38.9,30.3,29.62,NNW,329,3.0,7.0,71,0.00,,---,0.00,VWS V14.01,2013-03-01 05:41:00,
2013-03-01 00:45:00,38.5,31.9,29.63,West,263,2.0,3.0,77,0.00,,---,0.00,VWS V14.01,2013-03-01 05:45:00,
2013-03-01 00:46:00,38.9,30.7,29.62,WNW,287,3.0,6.0,72,0.00,,---,0.00,VWS V14.01,2013-03-01 05:46:00,
2013-03-01 00:50:00,38.5,31.6,29.63,WSW,248,2.0,3.0,76,0.00,,---,0.00,VWS V14.01,2013-03-01 05:50:00,
2013-03-01 00:51:00,38.8,30.2,29.62,WNW,296,1.0,5.0,71,0.00,,---,0.00,VWS V14.01,2013-03-01 05:51:00,
2013-03-01 00:55:00,38.5,31.6,29.63,West,271,2.0,3.0,76,0.00,,---,0.00,VWS V14.01,2013-03-01 05:55:00,
2013-03-01 00:56:00,38.8,30.9,29.62,NNW,336,2.0,6.0,73,0.00,,---,0.00,VWS V14.01,2013-03-01 05:56:00,
2013-03-01 01:00:00,38.5,31.9,29.63,WSW,254,3.0,4.0,77,0.00,,---,0.00,VWS V14.01,2013-03-01 06:00:00,
2013-03-01 01:01:00,38.6,30.7,29.62,NW,312,1.0,6.0,73,0.00,,---,0.00,VWS V14.01,2013-03-01 06:01:00,
2013-03-01 01:05:00,38.5,31.9,29.63,West,264,2.0,3.0,77,0.00,,---,0.00,VWS V14.01,2013-03-01 06:05:00,
2013-03-01 01:06:00,38.6,30.7,29.62,NW,304,3.0,6.0,73,0.00,,---,0.00,VWS V14.01,2013-03-01 06:06:00,
2013-03-01 01:10:00,38.5,31.9,29.63,West,268,2.0,3.0,77,0.00,,---,0.00,VWS V14.01,2013-03-01 06:10:00,
2013-03-01 01:11:00,38.6,30.7,29.62,WNW,298,1.0,5.0,73,0.00,,---,0.00,VWS V14.01,2013-03-01 06:11:00,
2013-03-01 01:15:00,38.3,31.4,29.63,NW,305,3.0,4.0,76,0.00,,---,0.00,VWS V14.01,2013-03-01 06:15:00,
2013-03-01 01:16:00,38.5,30.6,29.62,WNW,296,2.0,7.0,73,0.00,,---,0.00,VWS V14.01,2013-03-01 06:16:00,
2013-03-01 01:20:00,38.0,30.8,29.63,WNW,284,2.0,7.0,75,0.00,,---,0.00,VWS V14.01,2013-03-01 06:20:00,
2013-03-01 01:21:00,38.5,30.3,29.63,West,271,2.0,8.0,72,0.00,,---,0.00,VWS V14.01,2013-03-01 06:21:00,
2013-03-01 01:25:00,37.9,30.7,29.63,NW,304,2.0,5.0,75,0.00,,---,0.00,VWS V14.01,2013-03-01 06:25:00,
2013-03-01 01:27:00,38.5,30.6,29.63,West,281,2.0,2.0,73,0.00,,---,0.00,VWS V14.01,2013-03-01 06:27:00,
2013-03-01 01:30:00,37.8,30.6,29.63,WNW,294,1.0,6.0,75,0.00,,---,0.00,VWS V14.01,2013-03-01 06:30:00,
2013-03-01 01:32:00,38.5,31.0,29.63,West,278,2.0,6.0,74,0.00,,---,0.00,VWS V14.01,2013-03-01 06:32:00,
2013-03-01 01:35:00,37.6,30.4,29.63,WNW,285,7.0,7.0,75,0.00,,---,0.00,VWS V14.01,2013-03-01 06:35:00,
2013-03-01 01:37:00,38.5,31.6,29.63,West,271,2.0,3.0,76,0.00,,---,0.00,VWS V14.01,2013-03-01 06:37:00,
2013-03-01 01:40:00,37.6,30.4,29.63,WNW,299,5.0,7.0,75,0.00,,---,0.00,VWS V14.01,2013-03-01 06:40:00,
2013-03-01 01:42:00,38.5,31.9,29.63,West,268,3.0,3.0,77,0.00,,---,0.00,VWS V14.01,2013-03-01 06:42:00,
2013-03-01 01:45:00,37.5,30.3,29.63,NW,305,2.0,6.0,75,0.00,,---,0.00,VWS V14.01,2013-03-01 06:45:00,
2013-03-01 01:47:00,38.5,31.3,29.63,West,278,2.0,3.0,75,0.00,,---,0.00,VWS V14.01,2013-03-01 06:47:00,
2013-03-01 01:50:00,37.5,30.6,29.63,NW,311,3.0,5.0,76,0.00,,---,0.00,VWS V14.01,2013-03-01 06:50:00,
2013-03-01 01:52:00,38.5,31.6,29.63,West,267,2.0,3.0,76,0.00,,---,0.00,VWS V14.01,2013-03-01 06:52:00,
2013-03-01 01:55:00,37.5,31.0,29.63,West,277,3.0,6.0,77,0.00,,---,0.00,VWS V14.01,2013-03-01 06:55:00,
2013-03-01 01:57:00,38.5,31.6,29.63,West,270,2.0,3.0,76,0.00,,---,0.00,VWS V14.01,2013-03-01 06:57:00,
2013-03-01 02:00:00,37.3,30.4,29.63,West,260,2.0,7.0,76,0.00,,---,0.00,VWS V14.01,2013-03-01 07:00:00,
2013-03-01 02:02:00,38.5,31.6,29.63,West,264,2.0,3.0,76,0.00,,---,0.00,VWS V14.01,2013-03-01 07:02:00,
2013-03-01 02:05:00,37.3,30.4,29.63,WNW,287,1.0,3.0,76,0.00,,---,0.00,VWS V14.01,2013-03-01 07:05:00,
2013-03-01 02:07:00,38.5,32.2,29.63,West,267,2.0,3.0,78,0.00,,---,0.00,VWS V14.01,2013-03-01 07:07:00,
2013-03-01 02:10:00,37.2,31.0,29.63,NW,305,2.0,5.0,78,0.00,,---,0.00,VWS V14.01,2013-03-01 07:10:00,
2013-03-01 02:12:00,38.5,31.6,29.63,West,271,2.0,3.0,76,0.00,,---,0.00,VWS V14.01,2013-03-01 07:12:00,
2013-03-01 02:15:00,37.2,30.7,29.63,West,267,4.0,5.0,77,0.00,,---,0.00,VWS V14.01,2013-03-01 07:15:00,
2013-03-01 02:17:00,38.3,31.7,29.63,WNW,299,3.0,4.0,77,0.00,,---,0.00,VWS V14.01,2013-03-01 07:17:00,
2013-03-01 02:20:00,37.2,30.3,29.63,WNW,295,2.0,8.0,76,0.00,,---,0.00,VWS V14.01,2013-03-01 07:20:00,
2013-03-01 02:22:00,38.0,30.8,29.63,WNW,296,3.0,6.0,75,0.00,,---,0.00,VWS V14.01,2013-03-01 07:22:00,
2013-03-01 02:25:00,37.2,30.7,29.63,West,270,2.0,3.0,77,0.00,,---,0.00,VWS V14.01,2013-03-01 07:25:00,
2013-03-01 02:27:00,37.9,31.0,29.63,WNW,295,3.0,5.0,76,0.00,,---,0.00,VWS V14.01,2013-03-01 07:27:00,
2013-03-01 02:30:00,37.0,30.5,29.64,WNW,298,2.0,3.0,77,0.00,,---,0.00,VWS V14.01,2013-03-01 07:30:00,
2013-03-01 02:32:00,37.8,30.6,29.63,WNW,296,3.0,6.0,75,0.00,,---,0.00,VWS V14.01,2013-03-01 07:32:00,
2013-03-01 02:35:00,37.0,30.8,29.64,WNW,287,1.0,3.0,78,0.00,,---,0.00,VWS V14.01,2013-03-01 07:35:00,
2013-03-01 02:37:00,37.8,30.6,29.63,WNW,285,3.0,7.0,75,0.00,,---,0.00,VWS V14.01,2013-03-01 07:37:00,
2013-03-01 02:40:00,37.0,30.8,29.64,NW,309,2.0,5.0,78,0.00,,---,0.00,VWS V14.01,2013-03-01 07:40:00,
2013-03-01 02:42:00,37.6,30.7,29.63,WNW,295,2.0,7.0,76,0.00,,---,0.00,VWS V14.01,2013-03-01 07:42:00,
2013-03-01 02:45:00,36.9,30.0,29.64,WNW,294,2.0,7.0,76,0.00,,---,0.00,VWS V14.01,2013-03-01 07:45:00,
2013-03-01 02:47:00,37.5,30.3,29.63,NW,323,6.0,6.0,75,0.00,,---,0.00,VWS V14.01,2013-03-01 07:47:00,
2013-03-01 02:50:00,36.8,30.3,29.64,WNW,291,2.0,6.0,77,0.00,,---,0.00,VWS V14.01,2013-03-01 07:50:00,
2013-03-01 02:52:00,37.5,30.6,29.63,WNW,292,4.0,5.0,76,0.00,,---,0.00,VWS V14.01,2013-03-01 07:52:00,
2013-03-01 02:55:00,36.8,30.0,29.64,NNW,343,2.0,6.0,76,0.00,,---,0.00,VWS V14.01,2013-03-01 07:55:00,
2013-03-01 02:57:00,37.5,31.0,29.63,NW,308,2.0,6.0,77,0.00,,---,0.00,VWS V14.01,2013-03-01 07:57:00,
2013-03-01 03:00:00,36.8,30.3,29.64,NNW,330,2.0,8.0,77,0.00,,---,0.00,VWS V14.01,2013-03-01 08:00:00,
2013-03-01 03:02:00,37.5,31.0,29.63,West,280,3.0,7.0,77,0.00,,---,0.00,VWS V14.01,2013-03-01 08:02:00,
2013-03-01 03:05:00,36.8,30.3,29.64,WNW,292,6.0,11.0,77,0.00,,---,0.00,VWS V14.01,2013-03-01 08:05:00,
2013-03-01 03:07:00,37.3,30.4,29.63,WNW,291,1.0,3.0,76,0.00,,---,0.00,VWS V14.01,2013-03-01 08:07:00,
2013-03-01 03:10:00,36.8,30.0,29.64,WNW,302,6.0,14.0,76,0.00,,---,0.00,VWS V14.01,2013-03-01 08:10:00,
2013-03-01 03:12:00,37.2,30.4,29.63,West,267,1.0,5.0,76,0.00,,---,0.00,VWS V14.01,2013-03-01 08:12:00,
2013-03-01 03:15:00,36.8,30.3,29.64,NW,322,6.0,12.0,77,0.00,,---,0.00,VWS V14.01,2013-03-01 08:15:00,
2013-03-01 03:17:00,37.2,30.7,29.63,West,272,1.0,5.0,77,0.00,,---,0.00,VWS V14.01,2013-03-01 08:17:00,
2013-03-01 03:20:00,36.8,30.3,29.64,NNW,340,7.0,10.0,77,0.00,,---,0.00,VWS V14.01,2013-03-01 08:20:00,
2013-03-01 03:22:00,37.2,30.4,29.63,WNW,296,3.0,8.0,76,0.00,,---,0.00,VWS V14.01,2013-03-01 08:22:00,
2013-03-01 03:25:00,36.8,30.3,29.64,WNW,296,7.0,10.0,77,0.00,,---,0.00,VWS V14.01,2013-03-01 08:25:00,
2013-03-01 03:27:00,37.2,30.7,29.63,West,272,2.0,3.0,77,0.00,,---,0.00,VWS V14.01,2013-03-01 08:27:00,
2013-03-01 03:30:00,36.8,30.3,29.64,NNW,344,6.0,10.0,77,0.00,,---,0.00,VWS V14.01,2013-03-01 08:30:00,
2013-03-01 03:32:00,37.0,30.5,29.63,West,267,2.0,3.0,77,0.00,,---,0.00,VWS V14.01,2013-03-01 08:32:00,
2013-03-01 03:35:00,36.6,30.4,29.64,NNW,346,6.0,11.0,78,0.00,,---,0.00,VWS V14.01,2013-03-01 08:35:00,
2013-03-01 03:37:00,37.0,30.5,29.64,West,274,2.0,3.0,77,0.00,,---,0.00,VWS V14.01,2013-03-01 08:37:00,
2013-03-01 03:40:00,36.6,30.1,29.64,NNW,344,7.0,11.0,77,0.00,,---,0.00,VWS V14.01,2013-03-01 08:40:00,
2013-03-01 03:42:00,37.0,30.8,29.64,WNW,294,2.0,5.0,78,0.00,,---,0.00,VWS V14.01,2013-03-01 08:42:00,
2013-03-01 03:45:00,36.9,30.0,29.64,NNW,337,10.0,13.0,76,0.00,,---,0.00,VWS V14.01,2013-03-01 08:45:00,
2013-03-01 03:47:00,36.9,30.0,29.64,NW,319,3.0,7.0,76,0.00,,---,0.00,VWS V14.01,2013-03-01 08:47:00,
2013-03-01 03:50:00,37.0,30.1,29.64,NW,306,3.0,12.0,76,0.00,,---,0.00,VWS V14.01,2013-03-01 08:50:00,
2013-03-01 03:52:00,36.9,30.4,29.64,WNW,294,4.0,4.0,77,0.00,,---,0.00,VWS V14.01,2013-03-01 08:52:00,
2013-03-01 03:55:00,37.2,30.7,29.64,NNW,343,5.0,12.0,77,0.00,,---,0.00,VWS V14.01,2013-03-01 08:55:00,
2013-03-01 03:57:00,36.8,30.3,29.64,WNW,289,2.0,6.0,77,0.00,,---,0.00,VWS V14.01,2013-03-01 08:57:00,
2013-03-01 04:00:00,37.2,31.0,29.64,NW,312,3.0,10.0,78,0.00,,---,0.00,VWS V14.01,2013-03-01 09:00:00,
2013-03-01 04:02:00,36.8,30.3,29.64,WNW,292,2.0,8.0,77,0.00,,---,0.00,VWS V14.01,2013-03-01 09:02:00,
2013-03-01 04:05:00,37.0,30.5,29.64,WNW,299,3.0,10.0,77,0.00,,---,0.00,VWS V14.01,2013-03-01 09:05:00,
2013-03-01 04:07:00,36.8,30.3,29.64,NNW,332,11.0,11.0,77,0.00,,---,0.00,VWS V14.01,2013-03-01 09:07:00,
2013-03-01 04:10:00,37.0,30.8,29.64,WNW,302,3.0,8.0,78,0.00,,---,0.00,VWS V14.01,2013-03-01 09:10:00,
2013-03-01 04:12:00,36.8,30.3,29.64,North,6,8.0,14.0,77,0.00,,---,0.00,VWS V14.01,2013-03-01 09:12:00,
2013-03-01 04:15:00,37.0,30.8,29.65,NNW,336,2.0,6.0,78,0.00,,---,0.00,VWS V14.01,2013-03-01 09:15:00,
2013-03-01 04:17:00,36.8,30.3,29.64,NNW,335,7.0,12.0,77,0.00,,---,0.00,VWS V14.01,2013-03-01 09:17:00,
2013-03-01 04:20:00,37.0,31.1,29.65,WNW,296,1.0,5.0,79,0.00,,---,0.00,VWS V14.01,2013-03-01 09:20:00,
2013-03-01 04:22:00,36.8,30.3,29.64,North,359,3.0,10.0,77,0.00,,---,0.00,VWS V14.01,2013-03-01 09:22:00,
2013-03-01 04:25:00,37.0,31.1,29.65,NW,316,6.0,7.0,79,0.00,,---,0.00,VWS V14.01,2013-03-01 09:25:00,
2013-03-01 04:27:00,36.8,30.6,29.64,NW,316,5.0,10.0,78,0.00,,---,0.00,VWS V14.01,2013-03-01 09:27:00,
2013-03-01 04:30:00,37.0,31.1,29.65,NW,313,2.0,7.0,79,0.00,,---,0.00,VWS V14.01,2013-03-01 09:30:00,
2013-03-01 04:32:00,36.8,30.3,29.64,WNW,299,3.0,8.0,77,0.00,,---,0.00,VWS V14.01,2013-03-01 09:32:00,
2013-03-01 04:35:00,36.9,31.0,29.65,NNW,332,2.0,7.0,79,0.00,,---,0.00,VWS V14.01,2013-03-01 09:35:00,
2013-03-01 04:37:00,36.8,30.3,29.64,NW,305,4.0,11.0,77,0.00,,---,0.00,VWS V14.01,2013-03-01 09:37:00,
2013-03-01 04:40:00,36.9,30.7,29.65,NW,306,3.0,8.0,78,0.00,,---,0.00,VWS V14.01,2013-03-01 09:40:00,
2013-03-01 04:42:00,36.6,30.1,29.64,North,0,6.0,11.0,77,0.00,,---,0.00,VWS V14.01,2013-03-01 09:42:00,
2013-03-01 04:45:00,37.0,30.8,29.65,NNW,343,2.0,10.0,78,0.00,,---,0.00,VWS V14.01,2013-03-01 09:45:00,
2013-03-01 04:48:00,36.9,30.0,29.64,WNW,294,12.0,13.0,76,0.00,,---,0.00,VWS V14.01,2013-03-01 09:48:00,
2013-03-01 04:50:00,37.0,31.1,29.65,WNW,296,3.0,7.0,79,0.00,,---,0.00,VWS V14.01,2013-03-01 09:50:00,
2013-03-01 04:53:00,37.0,30.1,29.64,NW,319,10.0,12.0,76,0.00,,---,0.00,VWS V14.01,2013-03-01 09:53:00,
2013-03-01 04:55:00,37.0,30.8,29.65,NNW,342,1.0,6.0,78,0.00,,---,0.00,VWS V14.01,2013-03-01 09:55:00,
2013-03-01 04:58:00,37.2,30.4,29.64,NW,318,6.0,12.0,76,0.00,,---,0.00,VWS V14.01,2013-03-01 09:58:00,
2013-03-01 05:00:00,37.0,31.1,29.65,NW,316,5.0,7.0,79,0.00,,---,0.00,VWS V14.01,2013-03-01 10:00:00,
2013-03-01 05:03:00,37.2,30.7,29.64,NNW,340,3.0,10.0,77,0.00,,---,0.00,VWS V14.01,2013-03-01 10:03:00,
2013-03-01 05:05:00,37.2,31.3,29.65,North,350,5.0,7.0,79,0.00,,---,0.00,VWS V14.01,2013-03-01 10:05:00,
2013-03-01 05:08:00,37.0,30.5,29.64,North,0,5.0,10.0,77,0.00,,---,0.00,VWS V14.01,2013-03-01 10:08:00,
2013-03-01 05:10:00,37.0,31.1,29.65,NNW,346,6.0,10.0,79,0.00,,---,0.00,VWS V14.01,2013-03-01 10:10:00,
2013-03-01 05:13:00,37.0,30.8,29.64,NW,318,3.0,8.0,78,0.00,,---,0.00,VWS V14.01,2013-03-01 10:13:00,
2013-03-01 05:15:00,37.0,30.8,29.65,NW,325,1.0,7.0,78,0.00,,---,0.00,VWS V14.01,2013-03-01 10:15:00,
2013-03-01 05:18:00,37.0,30.8,29.65,NNW,337,0.0,6.0,78,0.00,,---,0.00,VWS V14.01,2013-03-01 10:18:00,
2013-03-01 05:20:00,37.0,31.4,29.65,NW,325,3.0,8.0,80,0.00,,---,0.00,VWS V14.01,2013-03-01 10:20:00,
2013-03-01 05:23:00,37.0,31.1,29.65,WNW,288,1.0,5.0,79,0.00,,---,0.00,VWS V14.01,2013-03-01 10:23:00,
2013-03-01 05:25:00,37.0,31.4,29.65,NW,319,1.0,7.0,80,0.00,,---,0.00,VWS V14.01,2013-03-01 10:25:00,
2013-03-01 05:28:00,37.0,31.1,29.65,WNW,291,2.0,7.0,79,0.00,,---,0.00,VWS V14.01,2013-03-01 10:28:00,
2013-03-01 05:30:00,37.0,31.4,29.66,NW,318,2.0,4.0,80,0.00,,---,0.00,VWS V14.01,2013-03-01 10:30:00,
2013-03-01 05:33:00,37.0,31.1,29.65,NNW,342,3.0,7.0,79,0.00,,---,0.00,VWS V14.01,2013-03-01 10:33:00,
2013-03-01 05:35:00,37.0,31.4,29.66,NNW,333,1.0,4.0,80,0.00,,---,0.00,VWS V14.01,2013-03-01 10:35:00,
2013-03-01 05:38:00,36.9,31.0,29.65,NW,318,7.0,7.0,79,0.00,,---,0.00,VWS V14.01,2013-03-01 10:38:00,
2013-03-01 05:40:00,37.0,31.1,29.66,NNW,343,5.0,5.0,79,0.00,,---,0.00,VWS V14.01,2013-03-01 10:40:00,
2013-03-01 05:43:00,36.9,30.7,29.65,NNW,330,7.0,8.0,78,0.00,,---,0.00,VWS V14.01,2013-03-01 10:43:00,
2013-03-01 05:45:00,37.0,31.1,29.67,NW,313,3.0,6.0,79,0.00,,---,0.00,VWS V14.01,2013-03-01 10:45:00,
2013-03-01 05:48:00,37.0,30.8,29.65,NNW,343,2.0,10.0,78,0.00,,---,0.00,VWS V14.01,2013-03-01 10:48:00,
2013-03-01 05:50:00,37.2,31.9,29.67,WNW,302,0.0,3.0,81,0.00,,---,0.00,VWS V14.01,2013-03-01 10:50:00,
2013-03-01 05:53:00,37.0,31.1,29.65,WNW,296,3.0,7.0,79,0.00,,---,0.00,VWS V14.01,2013-03-01 10:53:00,
2013-03-01 05:55:00,37.2,31.6,29.67,WNW,285,1.0,3.0,80,0.00,,---,0.00,VWS V14.01,2013-03-01 10:55:00,
2013-03-01 05:58:00,37.0,30.8,29.65,NNW,342,1.0,1.0,78,0.00,,---,0.00,VWS V14.01,2013-03-01 10:58:00,
2013-03-01 06:00:00,37.3,31.4,29.67,NW,323,0.0,3.0,79,0.00,,---,0.00,VWS V14.01,2013-03-01 11:00:00,
2013-03-01 06:03:00,37.0,31.1,29.65,NW,316,5.0,7.0,79,0.00,,---,0.00,VWS V14.01,2013-03-01 11:03:00,
2013-03-01 06:05:00,37.5,31.6,29.67,WNW,294,0.0,3.0,79,0.00,,---,0.00,VWS V14.01,2013-03-01 11:05:00,
2013-03-01 06:08:00,37.2,31.3,29.65,North,350,5.0,7.0,79,0.00,,---,0.00,VWS V14.01,2013-03-01 11:08:00,
2013-03-01 06:10:00,37.6,32.0,29.67,WNW,289,1.0,2.0,80,0.00,,---,0.00,VWS V14.01,2013-03-01 11:10:00,
2013-03-01 06:13:00,37.0,31.1,29.65,NNW,344,2.0,6.0,79,0.00,,---,0.00,VWS V14.01,2013-03-01 11:13:00,
2013-03-01 06:15:00,37.8,31.9,29.68,West,281,1.0,2.0,79,0.00,,---,0.00,VWS V14.01,2013-03-01 11:15:00,
2013-03-01 06:18:00,37.0,30.8,29.65,NNW,339,2.0,2.0,78,0.00,,---,0.00,VWS V14.01,2013-03-01 11:18:00,
2013-03-01 06:20:00,37.9,32.0,29.68,West,281,1.0,2.0,79,0.00,,---,0.00,VWS V14.01,2013-03-01 11:20:00,
2013-03-01 06:23:00,37.0,31.4,29.65,WNW,301,2.0,3.0,80,0.00,,---,0.00,VWS V14.01,2013-03-01 11:23:00,
2013-03-01 06:25:00,38.0,32.1,29.68,WNW,284,1.0,2.0,79,0.00,,---,0.00,VWS V14.01,2013-03-01 11:25:00,
2013-03-01 06:28:00,37.0,31.4,29.65,WNW,292,3.0,3.0,80,0.00,,---,0.00,VWS V14.01,2013-03-01 11:28:00,
2013-03-01 06:30:00,38.2,32.3,29.69,WNW,292,1.0,2.0,79,0.00,,---,0.00,VWS V14.01,2013-03-01 11:30:00,
2013-03-01 06:33:00,37.0,31.4,29.66,NW,312,4.0,4.0,80,0.00,,---,0.00,VWS V14.01,2013-03-01 11:33:00,
2013-03-01 06:35:00,38.3,32.0,29.69,NW,320,1.0,2.0,78,0.00,,---,0.00,VWS V14.01,2013-03-01 11:35:00,
2013-03-01 06:38:00,37.0,31.4,29.66,North,359,2.0,2.0,80,0.00,,---,0.00,VWS V14.01,2013-03-01 11:38:00,
2013-03-01 06:40:00,38.5,31.9,29.69,NW,306,2.0,3.0,77,0.00,,---,0.00,VWS V14.01,2013-03-01 11:40:00,
2013-03-01 06:43:00,37.0,31.1,29.66,NW,319,2.0,5.0,79,0.00,,---,0.00,VWS V14.01,2013-03-01 11:43:00,
2013-03-01 06:45:00,38.6,32.0,29.69,WNW,298,1.0,5.0,77,0.00,,---,0.00,VWS V14.01,2013-03-01 11:45:00,
2013-03-01 06:48:00,37.0,31.1,29.67,NW,315,1.0,3.0,79,0.00,,---,0.00,VWS V14.01,2013-03-01 11:48:00,
2013-03-01 06:50:00,38.9,32.3,29.69,NW,313,2.0,5.0,77,0.00,,---,0.00,VWS V14.01,2013-03-01 11:50:00,
2013-03-01 06:53:00,37.2,31.9,29.67,WNW,302,0.0,0.0,81,0.00,,---,0.00,VWS V14.01,2013-03-01 11:53:00,
2013-03-01 06:55:00,39.2,32.3,29.69,NNW,340,1.0,3.0,76,0.00,,---,0.00,VWS V14.01,2013-03-01 11:55:00,
2013-03-01 06:58:00,37.2,31.6,29.67,WNW,287,0.0,1.0,80,0.00,,---,0.00,VWS V14.01,2013-03-01 11:58:00,
2013-03-01 07:00:00,39.5,32.6,29.70,WNW,296,1.0,6.0,76,0.00,,---,0.00,VWS V14.01,2013-03-01 12:00:00,
2013-03-01 07:03:00,37.3,31.4,29.67,NNW,340,1.0,1.0,79,0.00,,---,0.00,VWS V14.01,2013-03-01 12:03:00,
2013-03-01 07:05:00,39.8,32.5,29.70,WNW,292,1.0,3.0,75,0.00,,---,0.00,VWS V14.01,2013-03-01 12:05:00,
2013-03-01 07:08:00,37.5,31.6,29.67,WNW,294,0.0,0.0,79,0.00,,---,0.00,VWS V14.01,2013-03-01 12:08:00,
2013-03-01 07:10:00,40.1,32.5,29.70,NW,306,2.0,4.0,74,0.00,,---,0.00,VWS V14.01,2013-03-01 12:10:00,
2013-03-01 07:13:00,37.6,31.7,29.67,WNW,289,1.0,1.0,79,0.00,,---,0.00,VWS V14.01,2013-03-01 12:13:00,
2013-03-01 07:15:00,40.3,32.3,29.70,NW,323,5.0,9.0,73,0.00,,---,0.00,VWS V14.01,2013-03-01 12:15:00,
2013-03-01 07:19:00,37.8,31.9,29.68,West,281,1.0,2.0,79,0.00,,---,0.00,VWS V14.01,2013-03-01 12:19:00,
2013-03-01 07:20:00,40.6,32.3,29.70,NW,312,5.0,8.0,72,0.00,,---,0.00,VWS V14.01,2013-03-01 12:20:00,
2013-03-01 07:24:00,37.9,32.3,29.68,West,281,1.0,1.0,80,0.00,,---,0.00,VWS V14.01,2013-03-01 12:24:00,
2013-03-01 07:25:00,40.8,32.5,29.70,NW,304,2.0,8.0,72,0.00,,---,0.00,VWS V14.01,2013-03-01 12:25:00,
2013-03-01 07:29:00,38.0,32.7,29.68,WNW,284,1.0,1.0,81,0.00,,---,0.00,VWS V14.01,2013-03-01 12:29:00,
2013-03-01 07:30:00,41.1,32.4,29.70,NNW,337,10.0,10.0,71,0.00,,---,0.00,VWS V14.01,2013-03-01 12:30:00,
2013-03-01 07:34:00,38.2,32.3,29.69,NW,312,1.0,1.0,79,0.00,,---,0.00,VWS V14.01,2013-03-01 12:34:00,
2013-03-01 07:35:00,41.3,32.6,29.70,West,268,3.0,12.0,71,0.00,,---,0.00,VWS V14.01,2013-03-01 12:35:00,
2013-03-01 07:39:00,38.3,32.0,29.69,WSW,257,1.0,1.0,78,0.00,,---,0.00,VWS V14.01,2013-03-01 12:39:00,
2013-03-01 07:40:00,41.5,32.1,29.70,WNW,299,2.0,13.0,69,0.00,,---,0.00,VWS V14.01,2013-03-01 12:40:00,
2013-03-01 07:44:00,38.5,31.9,29.69,WNW,288,1.0,2.0,77,0.00,,---,0.00,VWS V14.01,2013-03-01 12:44:00,
2013-03-01 07:45:00,41.8,32.8,29.70,NNW,343,4.0,8.0,70,0.00,,---,0.00,VWS V14.01,2013-03-01 12:45:00,
2013-03-01 07:49:00,38.6,31.7,29.69,NW,311,2.0,2.0,76,0.00,,---,0.00,VWS V14.01,2013-03-01 12:49:00,
2013-03-01 07:50:00,41.6,32.2,29.70,NW,325,7.0,9.0,69,0.00,,---,0.00,VWS V14.01,2013-03-01 12:50:00,
2013-03-01 07:54:00,38.9,32.0,29.69,WNW,291,1.0,2.0,76,0.00,,---,0.00,VWS V14.01,2013-03-01 12:54:00,
2013-03-01 07:55:00,42.1,32.0,29.70,North,0,6.0,10.0,67,0.00,,---,0.00,VWS V14.01,2013-03-01 12:55:00,
2013-03-01 07:59:00,39.2,32.3,29.69,NW,319,2.0,2.0,76,0.00,,---,0.00,VWS V14.01,2013-03-01 12:59:00,
2013-03-01 08:00:00,42.5,31.6,29.70,NNW,343,4.0,13.0,65,0.00,,---,0.00,VWS V14.01,2013-03-01 13:00:00,
2013-03-01 08:04:00,39.5,32.2,29.70,WNW,289,1.0,1.0,75,0.00,,---,0.00,VWS V14.01,2013-03-01 13:04:00,
2013-03-01 08:05:00,42.5,31.2,29.70,NNW,339,8.0,15.0,64,0.00,,---,0.00,VWS V14.01,2013-03-01 13:05:00,
2013-03-01 08:09:00,39.8,32.5,29.70,WNW,292,0.0,1.0,75,0.00,,---,0.00,VWS V14.01,2013-03-01 13:09:00,
2013-03-01 08:10:00,42.6,31.7,29.70,NW,306,5.0,12.0,65,0.00,,---,0.00,VWS V14.01,2013-03-01 13:10:00,
2013-03-01 08:14:00,40.1,32.5,29.70,NW,325,3.0,5.0,74,0.00,,---,0.00,VWS V14.01,2013-03-01 13:14:00,
2013-03-01 08:15:00,42.6,30.5,29.70,NNW,347,6.0,18.0,62,0.00,,---,0.00,VWS V14.01,2013-03-01 13:15:00,
2013-03-01 08:19:00,40.5,32.5,29.70,NW,320,1.0,6.0,73,0.00,,---,0.00,VWS V14.01,2013-03-01 13:19:00,
2013-03-01 08:20:00,42.9,30.4,29.70,North,359,5.0,14.0,61,0.00,,---,0.00,VWS V14.01,2013-03-01 13:20:00,
2013-03-01 08:24:00,40.6,32.0,29.70,WNW,291,2.0,7.0,71,0.00,,---,0.00,VWS V14.01,2013-03-01 13:24:00,
2013-03-01 08:25:00,43.2,31.9,29.70,NW,318,7.0,14.0,64,0.00,,---,0.00,VWS V14.01,2013-03-01 13:25:00,
2013-03-01 08:29:00,40.9,32.6,29.70,NNW,336,3.0,5.0,72,0.00,,---,0.00,VWS V14.01,2013-03-01 13:29:00,
2013-03-01 08:30:00,42.9,30.4,29.70,North,0,11.0,17.0,61,0.00,,---,0.00,VWS V14.01,2013-03-01 13:30:00,
2013-03-01 08:34:00,41.1,32.1,29.70,NNW,339,11.0,12.0,70,0.00,,---,0.00,VWS V14.01,2013-03-01 13:34:00,
2013-03-01 08:35:00,43.1,30.6,29.70,North,357,5.0,15.0,61,0.00,,---,0.00,VWS V14.01,2013-03-01 13:35:00,
2013-03-01 08:39:00,41.3,31.9,29.70,North,352,12.0,13.0,69,0.00,,---,0.00,VWS V14.01,2013-03-01 13:39:00,
2013-03-01 08:40:00,42.9,30.4,29.70,NW,326,17.0,17.0,61,0.00,,---,0.00,VWS V14.01,2013-03-01 13:40:00,
2013-03-01 08:44:00,41.5,31.7,29.70,WNW,289,1.0,3.0,68,0.00,,---,0.00,VWS V14.01,2013-03-01 13:44:00,
2013-03-01 08:45:00,42.9,30.8,29.70,NNW,337,8.0,17.0,62,0.00,,---,0.00,VWS V14.01,2013-03-01 13:45:00,
2013-03-01 08:49:00,41.8,32.8,29.70,WNW,287,2.0,5.0,70,0.00,,---,0.00,VWS V14.01,2013-03-01 13:49:00,
2013-03-01 08:50:00,43.1,31.4,29.70,NNE,14,7.0,14.0,63,0.00,,---,0.00,VWS V14.01,2013-03-01 13:50:00,
2013-03-01 08:54:00,41.6,32.2,29.70,NW,304,8.0,8.0,69,0.00,,---,0.00,VWS V14.01,2013-03-01 13:54:00,
2013-03-01 08:55:00,43.2,31.1,29.70,North,1,6.0,13.0,62,0.00,,---,0.00,VWS V14.01,2013-03-01 13:55:00,
2013-03-01 08:59:00,42.1,31.6,29.70,West,280,4.0,13.0,66,0.00,,---,0.00,VWS V14.01,2013-03-01 13:59:00,
2013-03-01 09:00:00,43.2,31.1,29.69,North,353,10.0,11.0,62,0.00,,---,0.00,VWS V14.01,2013-03-01 14:00:00,
2013-03-01 09:04:00,42.5,32.0,29.70,NNW,335,12.0,12.0,66,0.00,,---,0.00,VWS V14.01,2013-03-01 14:04:00,
2013-03-01 09:05:00,43.5,30.1,29.69,North,4,2.0,14.0,59,0.00,,---,0.00,VWS V14.01,2013-03-01 14:05:00,
2013-03-01 09:09:00,42.5,31.2,29.70,NNW,339,7.0,11.0,64,0.00,,---,0.00,VWS V14.01,2013-03-01 14:09:00,
2013-03-01 09:10:00,44.3,30.5,29.69,North,356,2.0,15.0,58,0.00,,---,0.00,VWS V14.01,2013-03-01 14:10:00,
2013-03-01 09:14:00,42.6,32.0,29.70,NNW,329,4.0,7.0,66,0.00,,---,0.00,VWS V14.01,2013-03-01 14:14:00,
2013-03-01 09:15:00,44.1,30.3,29.69,North,352,16.0,16.0,58,0.00,,---,0.00,VWS V14.01,2013-03-01 14:15:00,
2013-03-01 09:19:00,42.6,30.9,29.70,NW,305,3.0,10.0,63,0.00,,---,0.00,VWS V14.01,2013-03-01 14:19:00,
2013-03-01 09:20:00,43.5,29.7,29.69,North,356,7.0,17.0,58,0.00,,---,0.00,VWS V14.01,2013-03-01 14:20:00,
2013-03-01 09:24:00,42.9,30.4,29.70,North,0,7.0,7.0,61,0.00,,---,0.00,VWS V14.01,2013-03-01 14:24:00,
2013-03-01 09:25:00,43.6,29.8,29.69,NNE,21,11.0,14.0,58,0.00,,---,0.00,VWS V14.01,2013-03-01 14:25:00,
2013-03-01 09:29:00,43.2,30.3,29.70,WNW,301,16.0,16.0,60,0.00,,---,0.00,VWS V14.01,2013-03-01 14:29:00,
2013-03-01 09:30:00,43.5,30.5,29.69,NE,35,6.0,14.0,60,0.00,,---,0.00,VWS V14.01,2013-03-01 14:30:00,
2013-03-01 09:34:00,42.9,30.4,29.70,NW,318,3.0,12.0,61,0.00,,---,0.00,VWS V14.01,2013-03-01 14:34:00,
2013-03-01 09:35:00,43.3,30.4,29.69,NNW,332,7.0,12.0,60,0.00,,---,0.00,VWS V14.01,2013-03-01 14:35:00,
2013-03-01 09:39:00,43.1,31.0,29.70,WNW,292,2.0,11.0,62,0.00,,---,0.00,VWS V14.01,2013-03-01 14:39:00,
2013-03-01 09:40:00,43.3,30.4,29.69,NW,322,8.0,13.0,60,0.00,,---,0.00,VWS V14.01,2013-03-01 14:40:00,
2013-03-01 09:44:00,42.8,30.3,29.70,NNW,332,10.0,17.0,61,0.00,,---,0.00,VWS V14.01,2013-03-01 14:44:00,
2013-03-01 09:45:00,43.3,30.4,29.70,North,0,7.0,12.0,60,0.00,,---,0.00,VWS V14.01,2013-03-01 14:45:00,
2013-03-01 09:49:00,42.9,30.8,29.70,NNW,337,12.0,14.0,62,0.00,,---,0.00,VWS V14.01,2013-03-01 14:49:00,
2013-03-01 09:50:00,43.5,30.1,29.70,North,0,6.0,12.0,59,0.00,,---,0.00,VWS V14.01,2013-03-01 14:50:00,
2013-03-01 09:54:00,43.1,30.6,29.70,NNW,328,5.0,8.0,61,0.00,,---,0.00,VWS V14.01,2013-03-01 14:54:00,
2013-03-01 09:55:00,43.6,29.8,29.70,North,359,8.0,12.0,58,0.00,,---,0.00,VWS V14.01,2013-03-01 14:55:00,
2013-03-01 09:59:00,43.2,31.1,29.70,NW,320,6.0,10.0,62,0.00,,---,0.00,VWS V14.01,2013-03-01 14:59:00,
2013-03-01 10:00:00,43.8,30.4,29.70,North,357,16.0,16.0,59,0.00,,---,0.00,VWS V14.01,2013-03-01 15:00:00,
2013-03-01 10:04:00,43.2,31.5,29.69,NW,316,14.0,14.0,63,0.00,,---,0.00,VWS V14.01,2013-03-01 15:04:00,
2013-03-01 10:05:00,43.9,28.4,29.70,North,353,12.0,17.0,54,0.00,,---,0.00,VWS V14.01,2013-03-01 15:05:00,
2013-03-01 10:09:00,43.6,30.2,29.69,North,11,11.0,15.0,59,0.00,,---,0.00,VWS V14.01,2013-03-01 15:09:00,
2013-03-01 10:10:00,43.6,27.1,29.70,NW,306,12.0,17.0,52,0.00,,---,0.00,VWS V14.01,2013-03-01 15:10:00,
2013-03-01 10:14:00,44.5,30.2,29.69,NNW,342,13.0,13.0,57,0.00,,---,0.00,VWS V14.01,2013-03-01 15:14:00,
2013-03-01 10:15:00,43.6,27.1,29.70,NNW,344,9.0,16.0,52,0.00,,---,0.00,VWS V14.01,2013-03-01 15:15:00,
2013-03-01 10:19:00,44.1,29.9,29.69,NNW,335,3.0,16.0,57,0.00,,---,0.00,VWS V14.01,2013-03-01 15:19:00,
2013-03-01 10:20:00,43.9,27.4,29.70,NNE,13,4.0,11.0,52,0.00,,---,0.00,VWS V14.01,2013-03-01 15:20:00,
2013-03-01 10:24:00,43.5,30.1,29.69,NE,34,10.0,14.0,59,0.00,,---,0.00,VWS V14.01,2013-03-01 15:24:00,
2013-03-01 10:25:00,43.9,27.4,29.70,NNW,332,11.0,17.0,52,0.00,,---,0.00,VWS V14.01,2013-03-01 15:25:00,
2013-03-01 10:29:00,43.6,29.8,29.69,NNE,16,7.0,14.0,58,0.00,,---,0.00,VWS V14.01,2013-03-01 15:29:00,
2013-03-01 10:30:00,44.1,28.1,29.70,NNW,342,14.0,14.0,53,0.00,,---,0.00,VWS V14.01,2013-03-01 15:30:00,
2013-03-01 10:34:00,43.5,31.0,29.69,NW,315,6.0,12.0,61,0.00,,---,0.00,VWS V14.01,2013-03-01 15:34:00,
2013-03-01 10:35:00,44.3,28.7,29.70,NNW,347,8.0,14.0,54,0.00,,---,0.00,VWS V14.01,2013-03-01 15:35:00,
2013-03-01 10:39:00,43.5,31.0,29.69,NW,326,3.0,7.0,61,0.00,,---,0.00,VWS V14.01,2013-03-01 15:39:00,
2013-03-01 10:40:00,44.6,28.5,29.70,North,11,3.0,10.0,53,0.00,,---,0.00,VWS V14.01,2013-03-01 15:40:00,
2013-03-01 10:44:00,43.3,30.4,29.69,NNW,347,2.0,11.0,60,0.00,,---,0.00,VWS V14.01,2013-03-01 15:44:00,
2013-03-01 10:45:00,44.5,28.5,29.70,North,0,5.0,12.0,53,0.00,,---,0.00,VWS V14.01,2013-03-01 15:45:00,
2013-03-01 10:49:00,43.3,30.4,29.70,North,1,7.0,11.0,60,0.00,,---,0.00,VWS V14.01,2013-03-01 15:49:00,
2013-03-01 10:50:00,44.2,28.2,29.70,NNE,17,5.0,13.0,53,0.00,,---,0.00,VWS V14.01,2013-03-01 15:50:00,
2013-03-01 10:54:00,43.5,30.1,29.70,North,350,7.0,11.0,59,0.00,,---,0.00,VWS V14.01,2013-03-01 15:54:00,
2013-03-01 10:55:00,44.1,28.5,29.70,North,359,8.0,14.0,54,0.00,,---,0.00,VWS V14.01,2013-03-01 15:55:00,
2013-03-01 10:59:00,43.6,29.4,29.70,North,352,7.0,10.0,57,0.00,,---,0.00,VWS V14.01,2013-03-01 15:59:00,
2013-03-01 11:00:00,43.6,27.6,29.70,North,359,7.0,16.0,53,0.00,,---,0.00,VWS V14.01,2013-03-01 16:00:00,
2013-03-01 11:04:00,43.8,29.6,29.70,NNW,337,8.0,16.0,57,0.00,,---,0.00,VWS V14.01,2013-03-01 16:04:00,
2013-03-01 11:05:00,43.8,29.1,29.70,NNW,337,6.0,10.0,56,0.00,,---,0.00,VWS V14.01,2013-03-01 16:05:00,
2013-03-01 11:09:00,43.9,27.9,29.70,NW,320,13.0,15.0,53,0.00,,---,0.00,VWS V14.01,2013-03-01 16:09:00,
2013-03-01 11:10:00,43.9,29.7,29.70,NW,305,8.0,11.0,57,0.00,,---,0.00,VWS V14.01,2013-03-01 16:10:00,
2013-03-01 11:14:00,43.6,27.1,29.70,NW,326,13.0,14.0,52,0.00,,---,0.00,VWS V14.01,2013-03-01 16:14:00,
2013-03-01 11:15:00,43.8,29.1,29.70,North,357,9.0,13.0,56,0.00,,---,0.00,VWS V14.01,2013-03-01 16:15:00,
2013-03-01 11:19:00,43.8,26.9,29.70,North,359,6.0,11.0,51,0.00,,---,0.00,VWS V14.01,2013-03-01 16:19:00,
2013-03-01 11:20:00,43.8,30.0,29.70,North,8,5.0,10.0,58,0.00,,---,0.00,VWS V14.01,2013-03-01 16:20:00,
2013-03-01 11:24:00,44.1,27.6,29.70,NNW,343,3.0,11.0,52,0.00,,---,0.00,VWS V14.01,2013-03-01 16:24:00,
2013-03-01 11:25:00,43.9,30.1,29.70,North,356,5.0,8.0,58,0.00,,---,0.00,VWS V14.01,2013-03-01 16:25:00,
2013-03-01 11:29:00,43.9,27.4,29.70,NNW,336,5.0,11.0,52,0.00,,---,0.00,VWS V14.01,2013-03-01 16:29:00,
2013-03-01 11:30:00,43.8,29.6,29.70,North,354,8.0,12.0,57,0.00,,---,0.00,VWS V14.01,2013-03-01 16:30:00,
2013-03-01 11:34:00,44.1,28.1,29.70,NNW,328,12.0,14.0,53,0.00,,---,0.00,VWS V14.01,2013-03-01 16:34:00,
2013-03-01 11:35:00,43.6,29.8,29.70,North,0,1.0,10.0,58,0.00,,---,0.00,VWS V14.01,2013-03-01 16:35:00,
2013-03-01 11:39:00,44.3,28.3,29.70,NNW,335,6.0,10.0,53,0.00,,---,0.00,VWS V14.01,2013-03-01 16:39:00,
2013-03-01 11:40:00,43.3,30.0,29.70,North,349,6.0,7.0,59,0.00,,---,0.00,VWS V14.01,2013-03-01 16:40:00,
2013-03-01 11:44:00,44.6,28.5,29.70,NNE,30,5.0,10.0,53,0.00,,---,0.00,VWS V14.01,2013-03-01 16:44:00,
2013-03-01 11:45:00,43.3,30.4,29.70,North,0,6.0,8.0,60,0.00,,---,0.00,VWS V14.01,2013-03-01 16:45:00,
2013-03-01 11:49:00,44.3,27.8,29.70,NNE,27,9.0,13.0,52,0.00,,---,0.00,VWS V14.01,2013-03-01 16:49:00,
2013-03-01 11:50:00,43.2,30.3,29.70,North,0,5.0,12.0,60,0.00,,---,0.00,VWS V14.01,2013-03-01 16:50:00,
2013-03-01 11:54:00,44.2,28.2,29.70,North,353,8.0,13.0,53,0.00,,---,0.00,VWS V14.01,2013-03-01 16:54:00,
2013-03-01 11:55:00,43.2,30.7,29.70,North,10,3.0,8.0,61,0.00,,---,0.00,VWS V14.01,2013-03-01 16:55:00,
2013-03-01 11:59:00,43.9,27.9,29.70,NNW,347,11.0,14.0,53,0.00,,---,0.00,VWS V14.01,2013-03-01 16:59:00,
2013-03-01 12:00:00,43.3,30.8,29.69,NNW,347,2.0,10.0,61,0.00,,---,0.00,VWS V14.01,2013-03-01 17:00:00,
2013-03-01 12:04:00,43.6,27.6,29.70,NNW,340,5.0,10.0,53,0.00,,---,0.00,VWS V14.01,2013-03-01 17:04:00,
2013-03-01 12:05:00,43.3,30.8,29.69,NNW,333,2.0,8.0,61,0.00,,---,0.00,VWS V14.01,2013-03-01 17:05:00,
2013-03-01 12:09:00,43.9,29.2,29.70,NNW,342,9.0,10.0,56,0.00,,---,0.00,VWS V14.01,2013-03-01 17:09:00,
2013-03-01 12:10:00,43.2,31.1,29.69,NNW,346,1.0,10.0,62,0.00,,---,0.00,VWS V14.01,2013-03-01 17:10:00,
2013-03-01 12:14:00,43.9,29.2,29.70,North,4,11.0,11.0,56,0.00,,---,0.00,VWS V14.01,2013-03-01 17:14:00,
2013-03-01 12:15:00,43.3,31.2,29.69,NE,45,6.0,6.0,62,0.00,,---,0.00,VWS V14.01,2013-03-01 17:15:00,
2013-03-01 12:19:00,43.8,29.1,29.70,North,350,6.0,10.0,56,0.00,,---,0.00,VWS V14.01,2013-03-01 17:19:00,
2013-03-01 12:20:00,43.2,30.7,29.69,North,353,2.0,10.0,61,0.00,,---,0.00,VWS V14.01,2013-03-01 17:20:00,
2013-03-01 12:24:00,43.9,29.7,29.70,North,359,1.0,7.0,57,0.00,,---,0.00,VWS V14.01,2013-03-01 17:24:00,
2013-03-01 12:25:00,43.2,30.7,29.69,NNW,344,2.0,7.0,61,0.00,,---,0.00,VWS V14.01,2013-03-01 17:25:00,
2013-03-01 12:29:00,44.1,30.3,29.70,NNE,14,7.0,8.0,58,0.00,,---,0.00,VWS V14.01,2013-03-01 17:29:00,
2013-03-01 12:30:00,43.3,30.8,29.69,North,359,2.0,7.0,61,0.00,,---,0.00,VWS V14.01,2013-03-01 17:30:00,
2013-03-01 12:34:00,43.8,30.0,29.70,North,10,1.0,8.0,58,0.00,,---,0.00,VWS V14.01,2013-03-01 17:34:00,
2013-03-01 12:35:00,43.3,31.2,29.69,North,356,2.0,6.0,62,0.00,,---,0.00,VWS V14.01,2013-03-01 17:35:00,
2013-03-01 12:39:00,43.6,30.2,29.70,NNE,23,2.0,7.0,59,0.00,,---,0.00,VWS V14.01,2013-03-01 17:39:00,
2013-03-01 12:40:00,43.3,31.2,29.69,North,0,7.0,7.0,62,0.00,,---,0.00,VWS V14.01,2013-03-01 17:40:00,
2013-03-01 12:44:00,43.3,30.4,29.70,NNE,18,5.0,7.0,60,0.00,,---,0.00,VWS V14.01,2013-03-01 17:44:00,
2013-03-01 12:45:00,43.2,30.7,29.69,North,352,7.0,8.0,61,0.00,,---,0.00,VWS V14.01,2013-03-01 17:45:00,
2013-03-01 12:50:00,43.3,30.4,29.70,NW,323,3.0,11.0,60,0.00,,---,0.00,VWS V14.01,2013-03-01 17:50:00,
2013-03-01 12:55:00,43.2,30.3,29.70,North,350,8.0,8.0,60,0.00,,---,0.00,VWS V14.01,2013-03-01 17:55:00,
2013-03-01 13:00:00,43.2,29.9,29.70,North,0,6.0,9.0,59,0.00,,---,0.00,VWS V14.01,2013-03-01 18:00:00,
2013-03-01 13:05:00,43.3,30.8,29.69,North,359,4.0,5.0,61,0.00,,---,0.00,VWS V14.01,2013-03-01 18:05:00,
2013-03-01 13:10:00,43.3,30.4,29.69,NNW,343,7.0,10.0,60,0.00,,---,0.00,VWS V14.01,2013-03-01 18:10:00,
2013-03-01 13:15:00,43.2,31.1,29.69,North,353,2.0,5.0,62,0.00,,---,0.00,VWS V14.01,2013-03-01 18:15:00,
2013-03-01 13:20:00,43.2,30.7,29.69,NE,34,7.0,10.0,61,0.00,,---,0.00,VWS V14.01,2013-03-01 18:20:00,
2013-03-01 13:25:00,43.2,31.1,29.69,North,0,1.0,5.0,62,0.00,,---,0.00,VWS V14.01,2013-03-01 18:25:00,
2013-03-01 13:30:00,43.2,30.7,29.69,NNW,344,4.0,4.0,61,0.00,,---,0.00,VWS V14.01,2013-03-01 18:30:00,
2013-03-01 13:35:00,43.3,31.2,29.69,NW,320,1.0,5.0,62,0.00,,---,0.00,VWS V14.01,2013-03-01 18:35:00,
2013-03-01 13:40:00,43.3,31.2,29.69,NNE,27,2.0,6.0,62,0.00,,---,0.00,VWS V14.01,2013-03-01 18:40:00,
2013-03-01 13:45:00,43.3,30.8,29.69,North,0,4.0,8.0,61,0.00,,---,0.00,VWS V14.01,2013-03-01 18:45:00,
2013-03-01 13:50:00,43.1,30.6,29.69,North,350,10.0,11.0,61,0.00,,---,0.00,VWS V14.01,2013-03-01 18:50:00,
2013-03-01 13:55:00,43.1,30.6,29.69,NNW,328,3.0,7.0,61,0.00,,---,0.00,VWS V14.01,2013-03-01 18:55:00,
2013-03-01 14:00:00,42.9,30.4,29.69,NNW,339,7.0,8.0,61,0.00,,---,0.00,VWS V14.01,2013-03-01 19:00:00,
2013-03-01 14:05:00,42.9,31.2,29.69,North,10,5.0,7.0,63,0.00,,---,0.00,VWS V14.01,2013-03-01 19:05:00,
2013-03-01 14:10:00,43.1,30.2,29.69,NNW,343,6.0,10.0,60,0.00,,---,0.00,VWS V14.01,2013-03-01 19:10:00,
2013-03-01 14:15:00,43.2,30.3,29.69,NNE,18,1.0,6.0,60,0.00,,---,0.00,VWS V14.01,2013-03-01 19:15:00,
2013-03-01 14:20:00,43.2,30.3,29.69,NE,35,2.0,8.0,60,0.00,,---,0.00,VWS V14.01,2013-03-01 19:20:00,
2013-03-01 14:25:00,43.2,30.3,29.69,NNW,333,4.0,7.0,60,0.00,,---,0.00,VWS V14.01,2013-03-01 19:25:00,
2013-03-01 14:30:00,43.1,29.8,29.69,NNE,18,8.0,12.0,59,0.00,,---,0.00,VWS V14.01,2013-03-01 19:30:00,
2013-03-01 14:35:00,42.9,30.0,29.69,NE,44,6.0,10.0,60,0.00,,---,0.00,VWS V14.01,2013-03-01 19:35:00,
2013-03-01 14:40:00,42.9,30.0,29.69,North,352,5.0,6.0,60,0.00,,---,0.00,VWS V14.01,2013-03-01 19:40:00,
2013-03-01 14:45:00,42.9,30.4,29.69,North,3,5.0,9.0,61,0.00,,---,0.00,VWS V14.01,2013-03-01 19:45:00,
2013-03-01 14:50:00,42.9,30.4,29.69,North,0,6.0,7.0,61,0.00,,---,0.00,VWS V14.01,2013-03-01 19:50:00,
2013-03-01 14:55:00,42.9,30.4,29.69,NNE,17,3.0,7.0,61,0.00,,---,0.00,VWS V14.01,2013-03-01 19:55:00,
2013-03-01 15:00:00,43.1,30.6,29.69,NE,37,6.0,7.0,61,0.00,,---,0.00,VWS V14.01,2013-03-01 20:00:00,
2013-03-01 15:05:00,43.2,31.1,29.69,North,357,1.0,5.0,62,0.00,,---,0.00,VWS V14.01,2013-03-01 20:05:00,
2013-03-01 15:10:00,43.3,31.2,29.69,NW,320,5.0,6.0,62,0.00,,---,0.00,VWS V14.01,2013-03-01 20:10:00,
2013-03-01 15:15:00,43.5,31.4,29.69,North,0,5.0,7.0,62,0.00,,---,0.00,VWS V14.01,2013-03-01 20:15:00,
2013-03-01 15:20:00,43.5,31.4,29.69,North,359,3.0,6.0,62,0.00,,---,0.00,VWS V14.01,2013-03-01 20:20:00,
2013-03-01 15:25:00,43.5,31.4,29.69,North,356,8.0,10.0,62,0.00,,---,0.00,VWS V14.01,2013-03-01 20:25:00,
2013-03-01 15:30:00,43.1,30.6,29.69,North,357,6.0,12.0,61,0.00,,---,0.00,VWS V14.01,2013-03-01 20:30:00,
2013-03-01 15:35:00,42.5,32.3,29.70,NW,309,10.0,12.0,67,0.00,,---,0.00,VWS V14.01,2013-03-01 20:35:00,
2013-03-01 15:40:00,42.1,32.0,29.70,NW,325,8.0,14.0,67,0.00,,---,0.00,VWS V14.01,2013-03-01 20:40:00,
2013-03-01 15:45:00,41.8,31.7,29.70,NNW,329,14.0,14.0,67,0.01,,---,0.01,VWS V14.01,2013-03-01 20:45:00,
2013-03-01 15:50:00,41.8,32.4,29.70,NW,315,7.0,10.0,69,0.01,,---,0.01,VWS V14.01,2013-03-01 20:50:00,
2013-03-01 15:55:00,41.8,32.8,29.70,NW,320,3.0,8.0,70,0.01,,---,0.01,VWS V14.01,2013-03-01 20:55:00,
2013-03-01 16:00:00,41.9,31.8,29.70,NW,309,5.0,8.0,67,0.01,,---,0.01,VWS V14.01,2013-03-01 21:00:00,
2013-03-01 16:05:00,42.1,31.6,29.70,NW,323,2.0,12.0,66,0.01,,---,0.01,VWS V14.01,2013-03-01 21:05:00,
2013-03-01 16:10:00,42.3,31.0,29.70,WNW,302,3.0,14.0,64,0.01,,---,0.01,VWS V14.01,2013-03-01 21:10:00,
2013-03-01 16:15:00,42.5,31.2,29.70,NNW,347,7.0,11.0,64,0.01,,---,0.01,VWS V14.01,2013-03-01 21:15:00,
2013-03-01 16:20:00,42.3,31.4,29.70,NNW,333,8.0,10.0,65,0.01,,---,0.01,VWS V14.01,2013-03-01 21:20:00,
2013-03-01 16:25:00,42.5,30.8,29.70,North,0,10.0,11.0,63,0.01,,---,0.01,VWS V14.01,2013-03-01 21:25:00,
2013-03-01 16:30:00,42.5,31.2,29.70,NW,306,7.0,11.0,64,0.01,,---,0.01,VWS V14.01,2013-03-01 21:30:00,
2013-03-01 16:35:00,42.5,31.6,29.70,NW,308,7.0,7.0,65,0.01,,---,0.01,VWS V14.01,2013-03-01 21:35:00,
2013-03-01 16:40:00,42.2,31.3,29.70,NNW,347,7.0,14.0,65,0.01,,---,0.01,VWS V14.01,2013-03-01 21:40:00,
2013-03-01 16:45:00,41.9,31.4,29.70,WNW,298,4.0,12.0,66,0.00,,---,0.01,VWS V14.01,2013-03-01 21:45:00,
2013-03-01 16:50:00,41.6,31.8,29.71,NW,304,2.0,10.0,68,0.00,,---,0.01,VWS V14.01,2013-03-01 21:50:00,
2013-03-01 16:55:00,41.3,31.9,29.71,NNW,342,7.0,12.0,69,0.00,,---,0.01,VWS V14.01,2013-03-01 21:55:00,
2013-03-01 17:00:00,41.3,31.2,29.71,NW,313,3.0,11.0,67,0.00,,---,0.01,VWS V14.01,2013-03-01 22:00:00,
2013-03-01 17:05:00,41.3,31.5,29.71,NW,318,3.0,7.0,68,0.00,,---,0.01,VWS V14.01,2013-03-01 22:05:00,
2013-03-01 17:10:00,41.3,31.2,29.71,NW,315,3.0,6.0,67,0.00,,---,0.01,VWS V14.01,2013-03-01 22:10:00,
2013-03-01 17:15:00,41.3,31.9,29.73,NW,318,1.0,11.0,69,0.00,,---,0.01,VWS V14.01,2013-03-01 22:15:00,
2013-03-01 17:16:00,41.3,32.3,29.71,NW,309,1.0,3.0,70,0.00,,---,0.01,VWS V14.01,2013-03-01 22:16:00,
2013-03-01 17:20:00,41.3,32.3,29.73,NW,318,0.0,5.0,70,0.00,,---,0.01,VWS V14.01,2013-03-01 22:20:00,
2013-03-01 17:21:00,41.2,31.5,29.72,NW,320,0.0,3.0,68,0.00,,---,0.01,VWS V14.01,2013-03-01 22:21:00,
2013-03-01 17:25:00,41.2,32.2,29.73,WNW,301,5.0,7.0,70,0.00,,---,0.01,VWS V14.01,2013-03-01 22:25:00,
2013-03-01 17:26:00,41.2,31.8,29.72,WNW,301,1.0,2.0,69,0.00,,---,0.01,VWS V14.01,2013-03-01 22:26:00,
2013-03-01 17:30:00,41.2,32.2,29.73,NW,322,3.0,9.0,70,0.00,,---,0.01,VWS V14.01,2013-03-01 22:30:00,
2013-03-01 17:31:00,41.2,31.8,29.72,WNW,299,1.0,3.0,69,0.00,,---,0.01,VWS V14.01,2013-03-01 22:31:00,
2013-03-01 17:35:00,41.1,32.8,29.73,WNW,299,3.0,6.0,72,0.00,,---,0.01,VWS V14.01,2013-03-01 22:35:00,
2013-03-01 17:36:00,41.2,31.1,29.72,WNW,298,0.0,2.0,67,0.00,,---,0.01,VWS V14.01,2013-03-01 22:36:00,
2013-03-01 17:40:00,41.1,32.4,29.73,NW,318,2.0,5.0,71,0.00,,---,0.01,VWS V14.01,2013-03-01 22:40:00,
2013-03-01 17:41:00,41.2,31.8,29.72,NW,320,2.0,3.0,69,0.00,,---,0.01,VWS V14.01,2013-03-01 22:41:00,
2013-03-01 17:45:00,41.1,32.8,29.73,NW,325,2.0,6.0,72,0.00,,---,0.01,VWS V14.01,2013-03-01 22:45:00,
2013-03-01 17:46:00,41.1,31.7,29.72,NW,312,3.0,3.0,69,0.00,,---,0.01,VWS V14.01,2013-03-01 22:46:00,
2013-03-01 17:50:00,41.1,32.4,29.73,NW,311,1.0,6.0,71,0.00,,---,0.01,VWS V14.01,2013-03-01 22:50:00,
2013-03-01 17:51:00,41.2,31.1,29.72,WNW,302,2.0,4.0,67,0.00,,---,0.01,VWS V14.01,2013-03-01 22:51:00,
2013-03-01 17:55:00,41.1,32.1,29.73,NW,305,1.0,5.0,70,0.00,,---,0.01,VWS V14.01,2013-03-01 22:55:00,
2013-03-01 17:56:00,41.2,31.8,29.72,WNW,292,2.0,6.0,69,0.00,,---,0.01,VWS V14.01,2013-03-01 22:56:00,
2013-03-01 18:00:00,40.9,32.2,29.73,NW,312,4.0,4.0,71,0.00,,---,0.01,VWS V14.01,2013-03-01 23:00:00,
2013-03-01 18:01:00,41.2,31.1,29.72,NNW,336,2.0,3.0,67,0.00,,---,0.01,VWS V14.01,2013-03-01 23:01:00,
2013-03-01 18:05:00,40.9,31.9,29.73,NW,325,1.0,4.0,70,0.00,,---,0.01,VWS V14.01,2013-03-01 23:05:00,
2013-03-01 18:06:00,41.2,31.5,29.73,NW,306,0.0,3.0,68,0.00,,---,0.01,VWS V14.01,2013-03-01 23:06:00,
2013-03-01 18:10:00,40.9,32.2,29.73,NW,308,1.0,4.0,71,0.00,,---,0.01,VWS V14.01,2013-03-01 23:10:00,
2013-03-01 18:11:00,41.3,32.3,29.73,NNW,329,1.0,6.0,70,0.00,,---,0.01,VWS V14.01,2013-03-01 23:11:00,
2013-03-01 18:15:00,40.9,31.9,29.73,NNW,332,3.0,5.0,70,0.00,,---,0.01,VWS V14.01,2013-03-01 23:15:00,
2013-03-01 18:16:00,41.3,31.9,29.73,NNW,330,5.0,11.0,69,0.00,,---,0.01,VWS V14.01,2013-03-01 23:16:00,
2013-03-01 18:20:00,40.9,31.9,29.73,NW,315,2.0,6.0,70,0.00,,---,0.01,VWS V14.01,2013-03-01 23:20:00,
2013-03-01 18:21:00,41.3,32.6,29.73,NW,308,1.0,5.0,71,0.00,,---,0.01,VWS V14.01,2013-03-01 23:21:00,
2013-03-01 18:25:00,40.8,31.8,29.73,North,359,2.0,7.0,70,0.00,,---,0.01,VWS V14.01,2013-03-01 23:25:00,
2013-03-01 18:26:00,41.3,32.3,29.73,NNW,343,2.0,7.0,70,0.00,,---,0.01,VWS V14.01,2013-03-01 23:26:00,
2013-03-01 18:30:00,40.8,31.8,29.73,NNW,335,6.0,7.0,70,0.00,,---,0.01,VWS V14.01,2013-03-01 23:30:00,
2013-03-01 18:31:00,41.2,32.2,29.73,NW,320,3.0,8.0,70,0.00,,---,0.01,VWS V14.01,2013-03-01 23:31:00,
2013-03-01 18:35:00,40.8,32.1,29.73,WNW,288,3.0,8.0,71,0.00,,---,0.01,VWS V14.01,2013-03-01 23:35:00,
2013-03-01 18:36:00,41.2,32.2,29.73,NW,315,1.0,6.0,70,0.00,,---,0.01,VWS V14.01,2013-03-01 23:36:00,
2013-03-01 18:40:00,40.6,32.3,29.73,NNW,339,6.0,8.0,72,0.00,,---,0.01,VWS V14.01,2013-03-01 23:40:00,
2013-03-01 18:41:00,41.1,32.8,29.73,NNW,333,5.0,5.0,72,0.00,,---,0.01,VWS V14.01,2013-03-01 23:41:00,
2013-03-01 18:45:00,40.5,32.5,29.73,NW,320,3.0,8.0,73,0.00,,---,0.01,VWS V14.01,2013-03-01 23:45:00,
2013-03-01 18:46:00,41.1,33.1,29.73,NW,320,0.0,2.0,73,0.00,,---,0.01,VWS V14.01,2013-03-01 23:46:00,
2013-03-01 18:50:00,40.5,32.2,29.73,NW,319,3.0,7.0,72,0.00,,---,0.01,VWS V14.01,2013-03-01 23:50:00,
2013-03-01 18:51:00,41.1,32.4,29.73,NW,318,1.0,6.0,71,0.00,,---,0.01,VWS V14.01,2013-03-01 23:51:00,
2013-03-01 18:55:00,40.3,32.0,29.73,NW,325,4.0,9.0,72,0.00,,---,0.01,VWS V14.01,2013-03-01 23:55:00,
2013-03-01 18:56:00,41.1,32.4,29.73,NW,316,1.0,5.0,71,0.00,,---,0.01,VWS V14.01,2013-03-01 23:56:00,
2013-03-01 19:00:00,40.3,32.3,29.74,NW,320,1.0,8.0,73,0.00,,---,0.01,VWS V14.01,2013-03-02 00:00:00,
2013-03-01 19:01:00,41.1,32.4,29.73,NW,318,2.0,2.0,71,0.00,,---,0.01,VWS V14.01,2013-03-02 00:01:00,
2013-03-01 19:05:00,40.2,32.2,29.74,WNW,287,2.0,6.0,73,0.00,,---,0.01,VWS V14.01,2013-03-02 00:05:00,
2013-03-01 19:06:00,40.9,31.9,29.73,NW,323,1.0,4.0,70,0.00,,---,0.01,VWS V14.01,2013-03-02 00:06:00,
2013-03-01 19:10:00,40.2,32.2,29.74,NW,318,2.0,10.0,73,0.00,,---,0.01,VWS V14.01,2013-03-02 00:10:00,
2013-03-01 19:11:00,40.9,31.9,29.73,NW,315,1.0,3.0,70,0.00,,---,0.01,VWS V14.01,2013-03-02 00:11:00,
2013-03-01 19:15:00,40.1,32.2,29.74,NW,311,1.0,5.0,73,0.00,,---,0.01,VWS V14.01,2013-03-02 00:15:00,
2013-03-01 19:16:00,40.9,31.9,29.73,WNW,296,2.0,5.0,70,0.00,,---,0.01,VWS V14.01,2013-03-02 00:16:00,
2013-03-01 19:20:00,40.1,32.5,29.74,WNW,301,3.0,8.0,74,0.00,,---,0.01,VWS V14.01,2013-03-02 00:20:00,
2013-03-01 19:21:00,40.9,31.9,29.73,NNW,329,1.0,5.0,70,0.00,,---,0.01,VWS V14.01,2013-03-02 00:21:00,
2013-03-01 19:25:00,40.1,32.2,29.74,NW,313,2.0,5.0,73,0.00,,---,0.01,VWS V14.01,2013-03-02 00:25:00,
2013-03-01 19:26:00,40.8,31.4,29.73,WNW,291,3.0,7.0,69,0.00,,---,0.01,VWS V14.01,2013-03-02 00:26:00,
2013-03-01 19:30:00,39.9,32.0,29.75,NNW,333,3.0,6.0,73,0.00,,---,0.01,VWS V14.01,2013-03-02 00:30:00,
2013-03-01 19:31:00,40.8,32.1,29.73,NW,305,3.0,6.0,71,0.00,,---,0.01,VWS V14.01,2013-03-02 00:31:00,
2013-03-01 19:35:00,39.9,32.3,29.75,NW,312,1.0,5.0,74,0.00,,---,0.01,VWS V14.01,2013-03-02 00:35:00,
2013-03-01 19:36:00,40.8,32.1,29.73,NNW,339,2.0,6.0,71,0.00,,---,0.01,VWS V14.01,2013-03-02 00:36:00,
2013-03-01 19:40:00,39.9,32.3,29.75,West,281,0.0,2.0,74,0.00,,---,0.01,VWS V14.01,2013-03-02 00:40:00,
2013-03-01 19:41:00,40.6,31.6,29.73,WNW,294,5.0,6.0,70,0.00,,---,0.01,VWS V14.01,2013-03-02 00:41:00,
2013-03-01 19:45:00,39.9,32.6,29.75,NW,326,1.0,3.0,75,0.00,,---,0.01,VWS V14.01,2013-03-02 00:45:00,
2013-03-01 19:46:00,40.6,32.3,29.73,NW,313,5.0,7.0,72,0.00,,---,0.01,VWS V14.01,2013-03-02 00:46:00,
2013-03-01 19:50:00,39.9,32.6,29.75,WNW,288,0.0,3.0,75,0.00,,---,0.01,VWS V14.01,2013-03-02 00:50:00,
2013-03-01 19:51:00,40.5,32.5,29.73,NW,315,5.0,7.0,73,0.00,,---,0.01,VWS V14.01,2013-03-02 00:51:00,
2013-03-01 19:55:00,39.9,32.6,29.75,NW,318,1.0,5.0,75,0.00,,---,0.01,VWS V14.01,2013-03-02 00:55:00,
2013-03-01 19:56:00,40.5,32.5,29.73,NW,308,1.0,6.0,73,0.00,,---,0.01,VWS V14.01,2013-03-02 00:56:00,
2013-03-01 20:00:00,39.8,32.2,29.76,WNW,294,1.0,5.0,74,0.00,,---,0.01,VWS V14.01,2013-03-02 01:00:00,
2013-03-01 20:01:00,40.3,32.0,29.73,WNW,295,5.0,8.0,72,0.00,,---,0.01,VWS V14.01,2013-03-02 01:01:00,
2013-03-01 20:05:00,39.8,32.5,29.76,WNW,294,1.0,4.0,75,0.00,,---,0.01,VWS V14.01,2013-03-02 01:05:00,
2013-03-01 20:06:00,40.2,32.2,29.74,WNW,292,3.0,6.0,73,0.00,,---,0.01,VWS V14.01,2013-03-02 01:06:00,
2013-03-01 20:10:00,39.8,31.9,29.76,WNW,282,1.0,6.0,73,0.00,,---,0.01,VWS V14.01,2013-03-02 01:10:00,
2013-03-01 20:11:00,40.2,31.9,29.74,NNW,330,2.0,10.0,72,0.00,,---,0.01,VWS V14.01,2013-03-02 01:11:00,
2013-03-01 20:15:00,39.8,32.2,29.76,NW,305,2.0,7.0,74,0.00,,---,0.01,VWS V14.01,2013-03-02 01:15:00,
2013-03-01 20:16:00,40.1,32.5,29.74,WNW,296,2.0,5.0,74,0.00,,---,0.01,VWS V14.01,2013-03-02 01:16:00,
2013-03-01 20:20:00,39.8,31.9,29.76,WNW,296,1.0,5.0,73,0.00,,---,0.01,VWS V14.01,2013-03-02 01:20:00,
2013-03-01 20:21:00,40.1,32.8,29.74,WNW,302,1.0,4.0,75,0.00,,---,0.01,VWS V14.01,2013-03-02 01:21:00,
2013-03-01 20:25:00,39.8,31.9,29.76,WNW,282,1.0,5.0,73,0.00,,---,0.01,VWS V14.01,2013-03-02 01:25:00,
2013-03-01 20:26:00,40.1,32.8,29.74,NW,311,2.0,5.0,75,0.00,,---,0.01,VWS V14.01,2013-03-02 01:26:00,
2013-03-01 20:30:00,39.8,32.2,29.76,WNW,298,1.0,5.0,74,0.00,,---,0.01,VWS V14.01,2013-03-02 01:30:00,
2013-03-01 20:31:00,40.1,32.5,29.74,WNW,287,2.0,6.0,74,0.00,,---,0.01,VWS V14.01,2013-03-02 01:31:00,
2013-03-01 20:35:00,39.8,32.2,29.76,NNW,337,1.0,2.0,74,0.00,,---,0.01,VWS V14.01,2013-03-02 01:35:00,
2013-03-01 20:36:00,39.9,32.6,29.75,West,281,2.0,5.0,75,0.00,,---,0.01,VWS V14.01,2013-03-02 01:36:00,
2013-03-01 20:40:00,39.8,32.2,29.76,West,275,1.0,7.0,74,0.00,,---,0.01,VWS V14.01,2013-03-02 01:40:00,
2013-03-01 20:41:00,39.9,32.3,29.75,WNW,289,0.0,2.0,74,0.00,,---,0.01,VWS V14.01,2013-03-02 01:41:00,
2013-03-01 20:45:00,39.8,32.2,29.76,WSW,251,2.0,6.0,74,0.00,,---,0.01,VWS V14.01,2013-03-02 01:45:00,
2013-03-01 20:46:00,39.9,32.3,29.75,NW,306,1.0,3.0,74,0.00,,---,0.01,VWS V14.01,2013-03-02 01:46:00,
2013-03-01 20:50:00,39.8,31.9,29.76,WNW,282,2.0,5.0,73,0.00,,---,0.01,VWS V14.01,2013-03-02 01:50:00,
2013-03-01 20:51:00,39.9,32.6,29.75,West,280,1.0,3.0,75,0.00,,---,0.01,VWS V14.01,2013-03-02 01:51:00,
2013-03-01 20:55:00,39.6,32.0,29.76,North,352,2.0,5.0,74,0.00,,---,0.01,VWS V14.01,2013-03-02 01:55:00,
2013-03-01 20:56:00,39.9,32.3,29.75,NW,320,1.0,5.0,74,0.00,,---,0.01,VWS V14.01,2013-03-02 01:56:00,
2013-03-01 21:00:00,39.6,32.0,29.76,WNW,292,4.0,5.0,74,0.00,,---,0.01,VWS V14.01,2013-03-02 02:00:00,
2013-03-01 21:01:00,39.8,32.2,29.75,WNW,289,2.0,5.0,74,0.00,,---,0.01,VWS V14.01,2013-03-02 02:01:00,
2013-03-01 21:05:00,39.6,32.0,29.76,NW,320,1.0,4.0,74,0.00,,---,0.01,VWS V14.01,2013-03-02 02:05:00,
2013-03-01 21:06:00,39.8,31.9,29.76,NW,318,3.0,4.0,73,0.00,,---,0.01,VWS V14.01,2013-03-02 02:06:00,
2013-03-01 21:10:00,39.6,31.7,29.76,NNW,329,5.0,7.0,73,0.00,,---,0.01,VWS V14.01,2013-03-02 02:10:00,
2013-03-01 21:11:00,39.8,32.2,29.76,NW,309,0.0,5.0,74,0.00,,---,0.01,VWS V14.01,2013-03-02 02:11:00,
2013-03-01 21:15:00,39.8,32.2,29.76,NW,308,1.0,6.0,74,0.00,,---,0.01,VWS V14.01,2013-03-02 02:15:00,
2013-03-01 21:16:00,39.8,32.2,29.76,NW,315,1.0,7.0,74,0.00,,---,0.01,VWS V14.01,2013-03-02 02:16:00,
2013-03-01 21:20:00,39.8,32.2,29.76,NW,322,2.0,6.0,74,0.00,,---,0.01,VWS V14.01,2013-03-02 02:20:00,
2013-03-01 21:21:00,39.8,32.2,29.76,West,275,2.0,5.0,74,0.00,,---,0.01,VWS V14.01,2013-03-02 02:21:00,
2013-03-01 21:25:00,39.8,31.5,29.76,WNW,296,4.0,6.0,72,0.00,,---,0.01,VWS V14.01,2013-03-02 02:25:00,
2013-03-01 21:26:00,39.8,32.5,29.76,WNW,295,1.0,5.0,75,0.00,,---,0.01,VWS V14.01,2013-03-02 02:26:00,
2013-03-01 21:30:00,39.8,31.5,29.76,WNW,285,3.0,7.0,72,0.00,,---,0.01,VWS V14.01,2013-03-02 02:30:00,
2013-03-01 21:31:00,39.8,31.9,29.76,WNW,285,2.0,5.0,73,0.00,,---,0.01,VWS V14.01,2013-03-02 02:31:00,
2013-03-01 21:35:00,39.8,31.5,29.76,NW,316,2.0,7.0,72,0.00,,---,0.01,VWS V14.01,2013-03-02 02:35:00,
2013-03-01 21:36:00,39.8,32.2,29.76,West,272,1.0,2.0,74,0.00,,---,0.01,VWS V14.01,2013-03-02 02:36:00,
2013-03-01 21:40:00,39.8,31.2,29.76,NW,319,3.0,7.0,71,0.00,,---,0.01,VWS V14.01,2013-03-02 02:40:00,
2013-03-01 21:41:00,39.8,32.2,29.76,WNW,287,1.0,7.0,74,0.00,,---,0.01,VWS V14.01,2013-03-02 02:41:00,
2013-03-01 21:45:00,39.8,31.2,29.76,WNW,301,1.0,5.0,71,0.00,,---,0.01,VWS V14.01,2013-03-02 02:45:00,
2013-03-01 21:46:00,39.8,32.2,29.76,NW,313,1.0,3.0,74,0.00,,---,0.01,VWS V14.01,2013-03-02 02:46:00,
2013-03-01 21:50:00,39.8,31.5,29.76,NNW,342,3.0,6.0,72,0.00,,---,0.01,VWS V14.01,2013-03-02 02:50:00,
2013-03-01 21:51:00,39.8,31.9,29.76,WNW,287,1.0,5.0,73,0.00,,---,0.01,VWS V14.01,2013-03-02 02:51:00,
2013-03-01 21:55:00,39.8,31.5,29.76,NW,304,2.0,10.0,72,0.00,,---,0.01,VWS V14.01,2013-03-02 02:55:00,
2013-03-01 21:56:00,39.6,31.7,29.76,WNW,291,1.0,5.0,73,0.00,,---,0.01,VWS V14.01,2013-03-02 02:56:00,
2013-03-01 22:00:00,39.8,31.5,29.76,NW,312,2.0,6.0,72,0.00,,---,0.01,VWS V14.01,2013-03-02 03:00:00,
2013-03-01 22:01:00,39.6,32.0,29.76,NW,311,2.0,5.0,74,0.00,,---,0.01,VWS V14.01,2013-03-02 03:01:00,
2013-03-01 22:05:00,39.6,31.7,29.76,NNW,329,2.0,7.0,73,0.00,,---,0.01,VWS V14.01,2013-03-02 03:05:00,
2013-03-01 22:06:00,39.6,31.7,29.76,West,277,2.0,4.0,73,0.00,,---,0.01,VWS V14.01,2013-03-02 03:06:00,
2013-03-01 22:10:00,39.5,31.6,29.76,NW,313,2.0,8.0,73,0.00,,---,0.01,VWS V14.01,2013-03-02 03:10:00,
2013-03-01 22:11:00,39.6,32.3,29.76,WNW,299,2.0,7.0,75,0.00,,---,0.01,VWS V14.01,2013-03-02 03:11:00,
2013-03-01 22:15:00,39.6,32.0,29.75,NW,316,3.0,6.0,74,0.00,,---,0.01,VWS V14.01,2013-03-02 03:15:00,
2013-03-01 22:16:00,39.8,31.9,29.76,North,353,1.0,5.0,73,0.00,,---,0.01,VWS V14.01,2013-03-02 03:16:00,
2013-03-01 22:20:00,39.5,32.2,29.75,WNW,298,2.0,5.0,75,0.00,,---,0.01,VWS V14.01,2013-03-02 03:20:00,
2013-03-01 22:21:00,39.8,31.5,29.76,NW,319,4.0,6.0,72,0.00,,---,0.01,VWS V14.01,2013-03-02 03:21:00,
2013-03-01 22:25:00,39.5,31.9,29.75,NNW,340,6.0,7.0,74,0.00,,---,0.01,VWS V14.01,2013-03-02 03:25:00,
2013-03-01 22:26:00,39.8,31.9,29.76,NW,316,2.0,6.0,73,0.00,,---,0.01,VWS V14.01,2013-03-02 03:26:00,
2013-03-01 22:30:00,39.3,31.4,29.75,WNW,299,0.0,6.0,73,0.00,,---,0.01,VWS V14.01,2013-03-02 03:30:00,
2013-03-01 22:31:00,39.8,31.5,29.76,NW,305,6.0,7.0,72,0.00,,---,0.01,VWS V14.01,2013-03-02 03:31:00,
2013-03-01 22:35:00,39.2,32.0,29.75,NW,319,5.0,5.0,75,0.00,,---,0.01,VWS V14.01,2013-03-02 03:35:00,
2013-03-01 22:36:00,39.8,31.2,29.76,NW,304,2.0,5.0,71,0.00,,---,0.01,VWS V14.01,2013-03-02 03:36:00,
2013-03-01 22:40:00,39.2,32.3,29.75,NW,323,1.0,6.0,76,0.00,,---,0.01,VWS V14.01,2013-03-02 03:40:00,
2013-03-01 22:41:00,39.8,31.2,29.76,NW,304,5.0,7.0,71,0.00,,---,0.01,VWS V14.01,2013-03-02 03:41:00,
2013-03-01 22:45:00,38.9,31.3,29.75,WNW,296,1.0,6.0,74,0.00,,---,0.01,VWS V14.01,2013-03-02 03:45:00,
2013-03-01 22:46:00,39.8,31.5,29.76,NW,304,2.0,5.0,72,0.00,,---,0.01,VWS V14.01,2013-03-02 03:46:00,
2013-03-01 22:50:00,38.9,31.7,29.75,NNW,337,2.0,6.0,75,0.00,,---,0.01,VWS V14.01,2013-03-02 03:50:00,
2013-03-01 22:51:00,39.8,31.5,29.76,NW,309,6.0,6.0,72,0.00,,---,0.01,VWS V14.01,2013-03-02 03:51:00,
2013-03-01 22:55:00,38.8,31.2,29.75,NW,311,1.0,6.0,74,0.00,,---,0.01,VWS V14.01,2013-03-02 03:55:00,
2013-03-01 22:56:00,39.8,31.5,29.76,NW,325,6.0,10.0,72,0.00,,---,0.01,VWS V14.01,2013-03-02 03:56:00,
2013-03-01 23:00:00,38.6,31.4,29.75,NW,316,2.0,5.0,75,0.00,,---,0.01,VWS V14.01,2013-03-02 04:00:00,
2013-03-01 23:01:00,39.8,31.9,29.76,WNW,299,6.0,6.0,73,0.00,,---,0.01,VWS V14.01,2013-03-02 04:01:00,
2013-03-01 23:05:00,38.5,31.3,29.75,NW,323,5.0,5.0,75,0.00,,---,0.00,VWS V14.01,2013-03-02 04:05:00,
2013-03-01 23:07:00,39.6,31.7,29.76,NW,319,3.0,7.0,73,0.00,,---,0.01,VWS V14.01,2013-03-02 04:07:00,
2013-03-01 23:10:00,38.2,31.0,29.75,West,270,4.0,7.0,75,0.00,,---,0.00,VWS V14.01,2013-03-02 04:10:00,
2013-03-01 23:12:00,39.6,31.7,29.76,WNW,302,5.0,8.0,73,0.00,,---,0.01,VWS V14.01,2013-03-02 04:12:00,
2013-03-01 23:15:00,38.2,31.6,29.75,NW,304,4.0,6.0,77,0.00,,---,0.00,VWS V14.01,2013-03-02 04:15:00,
2013-03-01 23:17:00,39.5,31.9,29.76,NW,315,2.0,6.0,74,0.00,,---,0.01,VWS V14.01,2013-03-02 04:17:00,
2013-03-01 23:20:00,38.0,31.1,29.75,NW,311,3.0,5.0,76,0.00,,---,0.00,VWS V14.01,2013-03-02 04:20:00,
2013-03-01 23:22:00,39.6,32.3,29.75,NW,316,1.0,5.0,75,0.00,,---,0.01,VWS V14.01,2013-03-02 04:22:00,
2013-03-01 23:25:00,38.0,31.1,29.75,North,356,2.0,7.0,76,0.00,,---,0.00,VWS V14.01,2013-03-02 04:25:00,
2013-03-01 23:27:00,39.5,32.2,29.75,NNW,335,2.0,7.0,75,0.00,,---,0.01,VWS V14.01,2013-03-02 04:27:00,
2013-03-01 23:30:00,37.9,31.4,29.75,NNW,340,4.0,7.0,77,0.00,,---,0.00,VWS V14.01,2013-03-02 04:30:00,
2013-03-01 23:32:00,39.3,31.7,29.75,WNW,288,2.0,6.0,74,0.00,,---,0.01,VWS V14.01,2013-03-02 04:32:00,
2013-03-01 23:35:00,37.8,30.6,29.75,NNW,342,6.0,9.0,75,0.00,,---,0.00,VWS V14.01,2013-03-02 04:35:00,
2013-03-01 23:37:00,39.3,31.7,29.75,NW,325,1.0,5.0,74,0.00,,---,0.01,VWS V14.01,2013-03-02 04:37:00,
2013-03-01 23:40:00,37.6,30.1,29.75,NNW,344,6.0,8.0,74,0.00,,---,0.00,VWS V14.01,2013-03-02 04:40:00,
2013-03-01 23:42:00,39.2,32.0,29.75,NNW,329,5.0,6.0,75,0.00,,---,0.01,VWS V14.01,2013-03-02 04:42:00,
2013-03-01 23:45:00,37.5,30.0,29.75,NW,326,6.0,10.0,74,0.00,,---,0.00,VWS V14.01,2013-03-02 04:45:00,
2013-03-01 23:47:00,39.1,31.9,29.75,NW,323,3.0,6.0,75,0.00,,---,0.01,VWS V14.01,2013-03-02 04:47:00,
2013-03-01 23:50:00,37.3,30.1,29.75,North,359,8.0,10.0,75,0.00,,---,0.00,VWS V14.01,2013-03-02 04:50:00,
2013-03-01 23:52:00,38.9,31.7,29.75,NNW,332,1.0,6.0,75,0.00,,---,0.01,VWS V14.01,2013-03-02 04:52:00,
2013-03-01 23:55:00,37.2,30.3,29.75,WNW,292,6.0,8.0,76,0.00,,---,0.00,VWS V14.01,2013-03-02 04:55:00,
2013-03-01 23:57:00,38.8,31.2,29.75,NW,315,2.0,6.0,74,0.00,,---,0.01,VWS V14.01,2013-03-02 04:57:00,